ンジャメナ の空港の天気 - METARとTAF

ンジャメナ国際空港 ( FTTJ / NDJ ) - チャド ンジャメナ
飛行場実況気象(Metar)
観測時間01/23 12:00 WAT (01/23 11:00 UTC)
風向・風速東 3m/s
視程8000m
天気現象
なし
気温36℃
湿度9%
気圧1010hPa
METARFTTJ 231100Z 08005KT 080V160 8000 NSC 36/M02 Q1010 NOSIG
過去の天気等 Google飛行場航空写真 Wunderground天気予報

過去48時間のMETAR

飛行場予報(TAF)
発表時間: 1/23 12:00 WAT (1/23 11:00 UTC)
予報対象時間: 23日13時 WAT ~ 24日19時 WAT
風向・風速北東 3m/s
視程8000m
なし
23日16時 WAT ~ 23日20時 WAT に一時的に
視程4000m
天気現象煙霧
24日6時 WAT ~ 24日10時 WAT に一時的に
視程4000m
天気現象煙霧
TAF FTTJ 231100Z 2312/2418 04006KT 8000 NSC
TEMPO 2315/2319 4000 HZ
TEMPO 2405/2409 4000 HZ